Startpagina
METAR-TAF:

METAR-TAF

Vliegvelden :

Guanare, Venezuela

breedte: 09-01N, lengte: 069-44W, hoogte: 163 m

Actueel weer

Dit bericht is 58 minuten geleden gemaakt, om 21:02 UTC
Wind 3 kt uit het oostzuidoosten
Temperatuur 39°C
Vochtigheid 36%
Druk 1012 hPa

METAR: SVGU 052102Z AUTO 11003KT NCD 39/21 Q1012

Tijdstip: 18:00 (22:00 UTC)


TAF: ontbreekt

Waarnemingen en weersverwachtingen van meer dan 4000 vliegvelden (METAR en TAF).

De beschikbare stations zijn de gele en rode punten op de kaart.

Ga met uw muis naar het station om de naam te zien.

Klik dan om waarnemingen en weersverwachtingen te zien.

kaart wijzigen: klik op de groene knoppen met een zwart kruis om in te zoomen, op de groene knop met een streepje om uit te zoomen of op de groene pijlen voor aangrenzende kaarten.


METAR-TAF: